sensor_id;sensor_type;location;lat;lon;timestamp;P1;durP1;ratioP1;P2;durP2;ratioP2
38785;SDS011;24535;45.508;12.252;2023-02-23T00:01:24;122.47;;;77.72;;
38785;SDS011;24535;45.508;12.252;2023-02-23T00:03:55;120.03;;;77.40;;
38785;SDS011;24535;45.508;12.252;2023-02-23T00:06:23;128.85;;;78.97;;
38785;SDS011;24535;45.508;12.252;2023-02-23T00:08:50;128.20;;;80.20;;
38785;SDS011;24535;45.508;12.252;2023-02-23T00:11:19;128.80;;;80.35;;
38785;SDS011;24535;45.508;12.252;2023-02-23T00:16:24;129.80;;;78.28;;
38785;SDS011;24535;45.508;12.252;2023-02-23T00:18:54;126.72;;;78.28;;
38785;SDS011;24535;45.508;12.252;2023-02-23T00:21:24;132.48;;;84.30;;
38785;SDS011;24535;45.508;12.252;2023-02-23T00:24:02;129.82;;;79.03;;
38785;SDS011;24535;45.508;12.252;2023-02-23T00:26:31;131.13;;;79.47;;
38785;SDS011;24535;45.508;12.252;2023-02-23T00:28:59;128.07;;;81.60;;
38785;SDS011;24535;45.508;12.252;2023-02-23T00:31:27;130.73;;;80.40;;
38785;SDS011;24535;45.508;12.252;2023-02-23T00:33:53;143.02;;;84.18;;
38785;SDS011;24535;45.508;12.252;2023-02-23T00:39:28;132.70;;;79.50;;
38785;SDS011;24535;45.508;12.252;2023-02-23T00:41:54;129.38;;;82.00;;
38785;SDS011;24535;45.508;12.252;2023-02-23T00:47:15;136.48;;;81.97;;
38785;SDS011;24535;45.508;12.252;2023-02-23T00:49:41;111.25;;;75.90;;
38785;SDS011;24535;45.508;12.252;2023-02-23T00:52:09;136.45;;;81.72;;
38785;SDS011;24535;45.508;12.252;2023-02-23T00:54:34;124.88;;;80.13;;
38785;SDS011;24535;45.508;12.252;2023-02-23T00:57:05;127.38;;;79.35;;
38785;SDS011;24535;45.508;12.252;2023-02-23T00:59:31;136.63;;;83.03;;
38785;SDS011;24535;45.508;12.252;2023-02-23T01:01:56;134.13;;;77.75;;
38785;SDS011;24535;45.508;12.252;2023-02-23T01:04:22;128.50;;;80.65;;
38785;SDS011;24535;45.508;12.252;2023-02-23T01:06:53;117.88;;;76.78;;
38785;SDS011;24535;45.508;12.252;2023-02-23T01:09:19;117.53;;;74.57;;
38785;SDS011;24535;45.508;12.252;2023-02-23T01:11:51;131.52;;;80.75;;
38785;SDS011;24535;45.508;12.252;2023-02-23T01:14:17;124.38;;;78.75;;
38785;SDS011;24535;45.508;12.252;2023-02-23T01:16:46;135.07;;;84.15;;
38785;SDS011;24535;45.508;12.252;2023-02-23T01:19:11;143.43;;;83.22;;
38785;SDS011;24535;45.508;12.252;2023-02-23T01:21:39;129.70;;;80.40;;
38785;SDS011;24535;45.508;12.252;2023-02-23T01:24:06;126.57;;;81.97;;
38785;SDS011;24535;45.508;12.252;2023-02-23T01:26:33;128.13;;;79.32;;
38785;SDS011;24535;45.508;12.252;2023-02-23T01:29:06;128.93;;;80.85;;
38785;SDS011;24535;45.508;12.252;2023-02-23T01:31:45;135.45;;;80.65;;
38785;SDS011;24535;45.508;12.252;2023-02-23T01:34:12;137.43;;;81.25;;
38785;SDS011;24535;45.508;12.252;2023-02-23T01:39:23;129.85;;;79.25;;
38785;SDS011;24535;45.508;12.252;2023-02-23T01:41:49;129.55;;;80.35;;
38785;SDS011;24535;45.508;12.252;2023-02-23T01:46:45;131.30;;;83.55;;
38785;SDS011;24535;45.508;12.252;2023-02-23T01:49:17;132.18;;;83.20;;
38785;SDS011;24535;45.508;12.252;2023-02-23T01:51:48;129.50;;;84.90;;
38785;SDS011;24535;45.508;12.252;2023-02-23T01:54:20;135.65;;;81.90;;
38785;SDS011;24535;45.508;12.252;2023-02-23T01:57:00;130.27;;;83.00;;
38785;SDS011;24535;45.508;12.252;2023-02-23T01:59:42;132.10;;;83.05;;
38785;SDS011;24535;45.508;12.252;2023-02-23T02:02:21;132.85;;;83.15;;
38785;SDS011;24535;45.508;12.252;2023-02-23T02:04:56;121.57;;;79.65;;
38785;SDS011;24535;45.508;12.252;2023-02-23T02:07:25;138.05;;;83.70;;
38785;SDS011;24535;45.508;12.252;2023-02-23T02:10:00;129.82;;;80.97;;
38785;SDS011;24535;45.508;12.252;2023-02-23T02:12:44;122.20;;;77.25;;
38785;SDS011;24535;45.508;12.252;2023-02-23T02:15:22;125.38;;;77.93;;
38785;SDS011;24535;45.508;12.252;2023-02-23T02:21:13;135.80;;;82.28;;
38785;SDS011;24535;45.508;12.252;2023-02-23T02:38:11;121.55;;;73.03;;
38785;SDS011;24535;45.508;12.252;2023-02-23T02:41:00;118.85;;;78.40;;
38785;SDS011;24535;45.508;12.252;2023-02-23T02:46:25;121.05;;;78.90;;
38785;SDS011;24535;45.508;12.252;2023-02-23T02:48:58;120.00;;;80.95;;
38785;SDS011;24535;45.508;12.252;2023-02-23T02:57:18;138.70;;;86.20;;
38785;SDS011;24535;45.508;12.252;2023-02-23T02:59:49;134.98;;;86.72;;
38785;SDS011;24535;45.508;12.252;2023-02-23T03:02:40;135.07;;;83.63;;
38785;SDS011;24535;45.508;12.252;2023-02-23T03:05:44;140.45;;;86.50;;
38785;SDS011;24535;45.508;12.252;2023-02-23T03:15:22;130.90;;;83.05;;
38785;SDS011;24535;45.508;12.252;2023-02-23T03:21:07;128.77;;;81.85;;
38785;SDS011;24535;45.508;12.252;2023-02-23T03:26:55;133.65;;;84.00;;
38785;SDS011;24535;45.508;12.252;2023-02-23T03:29:46;130.43;;;81.47;;
38785;SDS011;24535;45.508;12.252;2023-02-23T03:32:43;136.10;;;81.25;;
38785;SDS011;24535;45.508;12.252;2023-02-23T03:38:54;135.18;;;85.88;;
38785;SDS011;24535;45.508;12.252;2023-02-23T03:41:50;135.02;;;84.30;;
38785;SDS011;24535;45.508;12.252;2023-02-23T03:44:38;135.43;;;85.80;;
38785;SDS011;24535;45.508;12.252;2023-02-23T03:47:26;131.18;;;83.35;;
38785;SDS011;24535;45.508;12.252;2023-02-23T03:50:15;144.05;;;82.57;;
38785;SDS011;24535;45.508;12.252;2023-02-23T03:53:09;135.73;;;87.13;;
38785;SDS011;24535;45.508;12.252;2023-02-23T03:55:57;138.98;;;89.95;;
38785;SDS011;24535;45.508;12.252;2023-02-23T03:58:45;129.60;;;85.68;;
38785;SDS011;24535;45.508;12.252;2023-02-23T04:01:39;136.10;;;83.72;;
38785;SDS011;24535;45.508;12.252;2023-02-23T04:04:23;135.43;;;86.40;;
38785;SDS011;24535;45.508;12.252;2023-02-23T04:07:10;130.15;;;88.28;;
38785;SDS011;24535;45.508;12.252;2023-02-23T04:10:07;135.52;;;85.53;;
38785;SDS011;24535;45.508;12.252;2023-02-23T04:13:10;128.38;;;82.05;;
38785;SDS011;24535;45.508;12.252;2023-02-23T04:16:00;135.65;;;84.50;;
38785;SDS011;24535;45.508;12.252;2023-02-23T04:18:31;132.55;;;83.15;;
38785;SDS011;24535;45.508;12.252;2023-02-23T04:20:59;136.73;;;83.93;;
38785;SDS011;24535;45.508;12.252;2023-02-23T04:23:25;142.40;;;88.53;;
38785;SDS011;24535;45.508;12.252;2023-02-23T04:25:52;136.32;;;83.25;;
38785;SDS011;24535;45.508;12.252;2023-02-23T04:28:24;126.55;;;80.53;;
38785;SDS011;24535;45.508;12.252;2023-02-23T04:30:57;117.85;;;78.00;;
38785;SDS011;24535;45.508;12.252;2023-02-23T04:33:22;137.55;;;86.22;;
38785;SDS011;24535;45.508;12.252;2023-02-23T04:35:51;130.77;;;84.00;;
38785;SDS011;24535;45.508;12.252;2023-02-23T04:38:18;136.43;;;86.88;;
38785;SDS011;24535;45.508;12.252;2023-02-23T04:40:44;126.90;;;81.40;;
38785;SDS011;24535;45.508;12.252;2023-02-23T04:43:12;139.40;;;85.80;;
38785;SDS011;24535;45.508;12.252;2023-02-23T04:45:39;130.70;;;79.50;;
38785;SDS011;24535;45.508;12.252;2023-02-23T04:48:12;128.93;;;82.82;;
38785;SDS011;24535;45.508;12.252;2023-02-23T04:50:37;134.27;;;83.78;;
38785;SDS011;24535;45.508;12.252;2023-02-23T04:53:03;135.20;;;83.65;;
38785;SDS011;24535;45.508;12.252;2023-02-23T04:55:29;143.10;;;88.15;;
38785;SDS011;24535;45.508;12.252;2023-02-23T04:57:57;130.50;;;84.80;;
38785;SDS011;24535;45.508;12.252;2023-02-23T05:00:24;135.52;;;87.05;;
38785;SDS011;24535;45.508;12.252;2023-02-23T05:02:53;142.35;;;86.43;;
38785;SDS011;24535;45.508;12.252;2023-02-23T05:05:19;143.00;;;84.00;;
38785;SDS011;24535;45.508;12.252;2023-02-23T05:07:45;138.15;;;83.97;;
38785;SDS011;24535;45.508;12.252;2023-02-23T05:10:11;147.80;;;88.75;;
38785;SDS011;24535;45.508;12.252;2023-02-23T05:12:36;135.18;;;84.55;;
38785;SDS011;24535;45.508;12.252;2023-02-23T05:15:02;137.10;;;85.20;;
38785;SDS011;24535;45.508;12.252;2023-02-23T05:17:28;127.68;;;78.43;;
38785;SDS011;24535;45.508;12.252;2023-02-23T05:19:53;148.10;;;88.50;;
38785;SDS011;24535;45.508;12.252;2023-02-23T05:22:25;135.00;;;83.90;;
38785;SDS011;24535;45.508;12.252;2023-02-23T05:24:50;134.57;;;86.95;;
38785;SDS011;24535;45.508;12.252;2023-02-23T05:27:16;136.35;;;84.05;;
38785;SDS011;24535;45.508;12.252;2023-02-23T05:29:41;144.60;;;85.88;;
38785;SDS011;24535;45.508;12.252;2023-02-23T05:32:07;126.88;;;82.22;;
38785;SDS011;24535;45.508;12.252;2023-02-23T05:34:33;128.43;;;81.22;;
38785;SDS011;24535;45.508;12.252;2023-02-23T05:37:06;140.63;;;82.50;;
38785;SDS011;24535;45.508;12.252;2023-02-23T05:39:35;135.90;;;83.68;;
38785;SDS011;24535;45.508;12.252;2023-02-23T05:42:00;138.55;;;88.55;;
38785;SDS011;24535;45.508;12.252;2023-02-23T05:44:26;141.93;;;88.22;;
38785;SDS011;24535;45.508;12.252;2023-02-23T05:46:52;137.48;;;90.32;;
38785;SDS011;24535;45.508;12.252;2023-02-23T05:49:17;148.10;;;88.13;;
38785;SDS011;24535;45.508;12.252;2023-02-23T05:51:43;144.05;;;89.72;;
38785;SDS011;24535;45.508;12.252;2023-02-23T05:54:14;148.77;;;87.18;;
38785;SDS011;24535;45.508;12.252;2023-02-23T05:56:40;150.25;;;87.30;;
38785;SDS011;24535;45.508;12.252;2023-02-23T05:59:06;133.90;;;84.50;;
38785;SDS011;24535;45.508;12.252;2023-02-23T06:01:32;140.27;;;84.15;;
38785;SDS011;24535;45.508;12.252;2023-02-23T06:04:07;141.40;;;89.60;;
38785;SDS011;24535;45.508;12.252;2023-02-23T06:09:36;153.38;;;92.65;;
38785;SDS011;24535;45.508;12.252;2023-02-23T06:12:02;149.93;;;88.75;;
38785;SDS011;24535;45.508;12.252;2023-02-23T06:14:27;143.52;;;88.15;;
38785;SDS011;24535;45.508;12.252;2023-02-23T06:16:53;145.90;;;86.90;;
38785;SDS011;24535;45.508;12.252;2023-02-23T06:19:18;138.10;;;88.38;;
38785;SDS011;24535;45.508;12.252;2023-02-23T06:21:44;132.73;;;81.32;;
38785;SDS011;24535;45.508;12.252;2023-02-23T06:24:18;143.68;;;82.97;;
38785;SDS011;24535;45.508;12.252;2023-02-23T06:26:44;130.48;;;82.53;;
38785;SDS011;24535;45.508;12.252;2023-02-23T06:29:09;128.98;;;81.93;;
38785;SDS011;24535;45.508;12.252;2023-02-23T06:31:36;132.98;;;84.28;;
38785;SDS011;24535;45.508;12.252;2023-02-23T06:34:02;130.57;;;82.15;;
38785;SDS011;24535;45.508;12.252;2023-02-23T06:36:28;149.40;;;86.15;;
38785;SDS011;24535;45.508;12.252;2023-02-23T06:38:56;126.78;;;80.28;;
38785;SDS011;24535;45.508;12.252;2023-02-23T06:41:25;126.82;;;78.30;;
38785;SDS011;24535;45.508;12.252;2023-02-23T06:43:51;143.68;;;83.28;;
38785;SDS011;24535;45.508;12.252;2023-02-23T06:46:17;128.10;;;82.13;;
38785;SDS011;24535;45.508;12.252;2023-02-23T06:48:43;128.82;;;80.45;;
38785;SDS011;24535;45.508;12.252;2023-02-23T06:51:08;143.27;;;87.15;;
38785;SDS011;24535;45.508;12.252;2023-02-23T06:55:59;143.05;;;89.35;;
38785;SDS011;24535;45.508;12.252;2023-02-23T06:58:28;145.48;;;85.97;;
38785;SDS011;24535;45.508;12.252;2023-02-23T07:00:54;149.63;;;86.43;;
38785;SDS011;24535;45.508;12.252;2023-02-23T07:03:24;145.77;;;92.45;;
38785;SDS011;24535;45.508;12.252;2023-02-23T07:05:50;141.73;;;84.60;;
38785;SDS011;24535;45.508;12.252;2023-02-23T07:08:17;148.70;;;89.93;;
38785;SDS011;24535;45.508;12.252;2023-02-23T07:10:46;152.75;;;91.88;;
38785;SDS011;24535;45.508;12.252;2023-02-23T07:19:16;160.13;;;92.70;;
38785;SDS011;24535;45.508;12.252;2023-02-23T07:21:45;156.30;;;93.60;;
38785;SDS011;24535;45.508;12.252;2023-02-23T07:24:16;166.23;;;95.57;;
38785;SDS011;24535;45.508;12.252;2023-02-23T07:26:41;159.80;;;95.93;;
38785;SDS011;24535;45.508;12.252;2023-02-23T07:29:19;160.02;;;92.53;;
38785;SDS011;24535;45.508;12.252;2023-02-23T07:32:06;154.90;;;90.30;;
38785;SDS011;24535;45.508;12.252;2023-02-23T07:34:32;154.15;;;95.28;;
38785;SDS011;24535;45.508;12.252;2023-02-23T07:36:57;156.77;;;93.90;;
38785;SDS011;24535;45.508;12.252;2023-02-23T07:39:22;168.80;;;96.13;;
38785;SDS011;24535;45.508;12.252;2023-02-23T07:41:52;157.27;;;89.97;;
38785;SDS011;24535;45.508;12.252;2023-02-23T07:44:21;161.55;;;92.82;;
38785;SDS011;24535;45.508;12.252;2023-02-23T07:47:44;150.43;;;93.85;;
38785;SDS011;24535;45.508;12.252;2023-02-23T07:50:09;151.75;;;92.03;;
38785;SDS011;24535;45.508;12.252;2023-02-23T07:52:37;138.48;;;88.70;;
38785;SDS011;24535;45.508;12.252;2023-02-23T07:55:04;144.07;;;88.60;;
38785;SDS011;24535;45.508;12.252;2023-02-23T07:57:31;150.70;;;87.88;;
38785;SDS011;24535;45.508;12.252;2023-02-23T07:59:57;154.70;;;93.95;;
38785;SDS011;24535;45.508;12.252;2023-02-23T08:02:22;154.50;;;92.45;;
38785;SDS011;24535;45.508;12.252;2023-02-23T08:04:48;154.48;;;90.53;;
38785;SDS011;24535;45.508;12.252;2023-02-23T08:07:14;151.63;;;91.20;;
38785;SDS011;24535;45.508;12.252;2023-02-23T08:09:40;156.40;;;91.35;;
38785;SDS011;24535;45.508;12.252;2023-02-23T08:12:06;143.73;;;88.95;;
38785;SDS011;24535;45.508;12.252;2023-02-23T08:14:31;151.50;;;92.45;;
38785;SDS011;24535;45.508;12.252;2023-02-23T08:17:03;126.90;;;78.25;;
38785;SDS011;24535;45.508;12.252;2023-02-23T08:19:35;133.20;;;79.00;;
38785;SDS011;24535;45.508;12.252;2023-02-23T08:22:04;137.90;;;83.95;;
38785;SDS011;24535;45.508;12.252;2023-02-23T08:24:33;120.70;;;75.75;;
38785;SDS011;24535;45.508;12.252;2023-02-23T08:30:21;118.35;;;73.30;;
38785;SDS011;24535;45.508;12.252;2023-02-23T08:32:58;103.57;;;66.68;;
38785;SDS011;24535;45.508;12.252;2023-02-23T08:35:34;109.70;;;67.38;;
38785;SDS011;24535;45.508;12.252;2023-02-23T08:38:12;128.32;;;77.53;;
38785;SDS011;24535;45.508;12.252;2023-02-23T08:40:43;112.25;;;68.93;;
38785;SDS011;24535;45.508;12.252;2023-02-23T08:43:09;151.43;;;86.45;;
38785;SDS011;24535;45.508;12.252;2023-02-23T08:45:34;152.98;;;92.15;;
38785;SDS011;24535;45.508;12.252;2023-02-23T08:48:11;160.43;;;94.75;;
38785;SDS011;24535;45.508;12.252;2023-02-23T08:50:37;123.43;;;76.85;;
38785;SDS011;24535;45.508;12.252;2023-02-23T08:53:02;152.18;;;86.10;;
38785;SDS011;24535;45.508;12.252;2023-02-23T08:55:28;161.75;;;93.50;;
38785;SDS011;24535;45.508;12.252;2023-02-23T08:57:53;169.48;;;94.57;;
38785;SDS011;24535;45.508;12.252;2023-02-23T09:00:19;159.43;;;92.22;;
38785;SDS011;24535;45.508;12.252;2023-02-23T09:02:45;167.60;;;94.78;;
38785;SDS011;24535;45.508;12.252;2023-02-23T09:05:14;161.52;;;93.70;;
38785;SDS011;24535;45.508;12.252;2023-02-23T09:07:40;157.32;;;93.63;;
38785;SDS011;24535;45.508;12.252;2023-02-23T09:10:10;158.98;;;94.97;;
38785;SDS011;24535;45.508;12.252;2023-02-23T09:12:43;162.27;;;94.63;;
38785;SDS011;24535;45.508;12.252;2023-02-23T09:15:09;151.25;;;88.03;;
38785;SDS011;24535;45.508;12.252;2023-02-23T09:17:35;129.95;;;77.60;;
38785;SDS011;24535;45.508;12.252;2023-02-23T09:20:04;134.35;;;82.13;;
38785;SDS011;24535;45.508;12.252;2023-02-23T09:22:33;155.80;;;90.50;;
38785;SDS011;24535;45.508;12.252;2023-02-23T09:24:58;163.88;;;95.53;;
38785;SDS011;24535;45.508;12.252;2023-02-23T09:27:24;150.23;;;87.70;;
38785;SDS011;24535;45.508;12.252;2023-02-23T09:29:49;155.13;;;89.95;;
38785;SDS011;24535;45.508;12.252;2023-02-23T09:32:15;167.38;;;93.10;;
38785;SDS011;24535;45.508;12.252;2023-02-23T09:34:41;144.30;;;87.07;;
38785;SDS011;24535;45.508;12.252;2023-02-23T09:37:06;124.68;;;74.22;;
38785;SDS011;24535;45.508;12.252;2023-02-23T09:39:32;122.97;;;76.32;;
38785;SDS011;24535;45.508;12.252;2023-02-23T09:44:56;115.70;;;71.75;;
38785;SDS011;24535;45.508;12.252;2023-02-23T09:47:56;125.68;;;70.63;;
38785;SDS011;24535;45.508;12.252;2023-02-23T09:50:37;109.72;;;68.75;;
38785;SDS011;24535;45.508;12.252;2023-02-23T09:53:09;153.88;;;85.80;;
38785;SDS011;24535;45.508;12.252;2023-02-23T09:55:43;126.32;;;75.40;;
38785;SDS011;24535;45.508;12.252;2023-02-23T09:58:28;120.18;;;73.80;;
38785;SDS011;24535;45.508;12.252;2023-02-23T10:11:22;131.00;;;73.40;;
38785;SDS011;24535;45.508;12.252;2023-02-23T10:22:17;135.13;;;74.35;;
38785;SDS011;24535;45.508;12.252;2023-02-23T10:24:47;121.38;;;71.80;;
38785;SDS011;24535;45.508;12.252;2023-02-23T10:27:21;114.32;;;65.82;;
38785;SDS011;24535;45.508;12.252;2023-02-23T10:29:56;108.22;;;66.80;;
38785;SDS011;24535;45.508;12.252;2023-02-23T10:32:29;110.45;;;66.65;;
38785;SDS011;24535;45.508;12.252;2023-02-23T10:34:58;119.95;;;69.28;;
38785;SDS011;24535;45.508;12.252;2023-02-23T10:37:24;110.47;;;63.03;;
38785;SDS011;24535;45.508;12.252;2023-02-23T10:39:50;111.22;;;65.53;;
38785;SDS011;24535;45.508;12.252;2023-02-23T10:42:26;107.88;;;66.18;;
38785;SDS011;24535;45.508;12.252;2023-02-23T10:44:56;100.20;;;61.72;;
38785;SDS011;24535;45.508;12.252;2023-02-23T10:47:30;106.38;;;61.70;;
38785;SDS011;24535;45.508;12.252;2023-02-23T10:49:58;97.82;;;61.83;;
38785;SDS011;24535;45.508;12.252;2023-02-23T10:52:32;100.60;;;62.15;;
38785;SDS011;24535;45.508;12.252;2023-02-23T10:55:05;106.00;;;63.53;;
38785;SDS011;24535;45.508;12.252;2023-02-23T10:57:33;104.40;;;63.45;;
38785;SDS011;24535;45.508;12.252;2023-02-23T11:02:40;100.32;;;60.10;;
38785;SDS011;24535;45.508;12.252;2023-02-23T11:05:27;105.68;;;61.45;;
38785;SDS011;24535;45.508;12.252;2023-02-23T11:08:08;105.20;;;63.00;;
38785;SDS011;24535;45.508;12.252;2023-02-23T11:10:35;130.52;;;74.95;;
38785;SDS011;24535;45.508;12.252;2023-02-23T11:13:00;107.82;;;65.82;;
38785;SDS011;24535;45.508;12.252;2023-02-23T11:18:00;101.05;;;61.05;;
38785;SDS011;24535;45.508;12.252;2023-02-23T11:21:00;106.93;;;66.00;;
38785;SDS011;24535;45.508;12.252;2023-02-23T11:26:02;126.10;;;70.35;;
38785;SDS011;24535;45.508;12.252;2023-02-23T11:28:40;118.75;;;70.25;;
38785;SDS011;24535;45.508;12.252;2023-02-23T11:31:14;129.77;;;71.43;;
38785;SDS011;24535;45.508;12.252;2023-02-23T11:33:45;114.90;;;66.00;;
38785;SDS011;24535;45.508;12.252;2023-02-23T11:36:28;118.47;;;64.72;;
38785;SDS011;24535;45.508;12.252;2023-02-23T11:39:16;114.50;;;65.70;;
38785;SDS011;24535;45.508;12.252;2023-02-23T11:42:11;115.40;;;67.40;;
38785;SDS011;24535;45.508;12.252;2023-02-23T11:44:51;105.60;;;63.13;;
38785;SDS011;24535;45.508;12.252;2023-02-23T11:47:27;105.88;;;60.63;;
38785;SDS011;24535;45.508;12.252;2023-02-23T11:49:53;99.88;;;61.03;;
38785;SDS011;24535;45.508;12.252;2023-02-23T11:52:28;101.43;;;58.35;;
38785;SDS011;24535;45.508;12.252;2023-02-23T11:55:04;99.93;;;60.35;;
38785;SDS011;24535;45.508;12.252;2023-02-23T11:57:33;104.43;;;61.00;;
38785;SDS011;24535;45.508;12.252;2023-02-23T12:00:22;103.40;;;61.13;;
38785;SDS011;24535;45.508;12.252;2023-02-23T12:02:57;108.70;;;64.18;;
38785;SDS011;24535;45.508;12.252;2023-02-23T12:05:28;114.07;;;65.90;;
38785;SDS011;24535;45.508;12.252;2023-02-23T12:07:58;113.60;;;63.28;;
38785;SDS011;24535;45.508;12.252;2023-02-23T12:24:51;114.90;;;62.83;;
38785;SDS011;24535;45.508;12.252;2023-02-23T12:27:46;96.18;;;59.17;;
38785;SDS011;24535;45.508;12.252;2023-02-23T12:33:02;102.47;;;56.38;;
38785;SDS011;24535;45.508;12.252;2023-02-23T12:50:05;96.10;;;55.67;;
38785;SDS011;24535;45.508;12.252;2023-02-23T12:52:37;110.50;;;61.03;;
38785;SDS011;24535;45.508;12.252;2023-02-23T12:55:35;97.35;;;54.92;;
38785;SDS011;24535;45.508;12.252;2023-02-23T12:58:18;88.38;;;52.22;;
38785;SDS011;24535;45.508;12.252;2023-02-23T13:00:50;97.35;;;57.53;;
38785;SDS011;24535;45.508;12.252;2023-02-23T13:42:44;101.95;;;58.47;;
38785;SDS011;24535;45.508;12.252;2023-02-23T13:45:46;110.38;;;60.20;;
38785;SDS011;24535;45.508;12.252;2023-02-23T13:58:10;96.50;;;53.20;;
38785;SDS011;24535;45.508;12.252;2023-02-23T14:08:02;87.00;;;52.53;;
38785;SDS011;24535;45.508;12.252;2023-02-23T14:16:07;93.10;;;53.97;;
38785;SDS011;24535;45.508;12.252;2023-02-23T14:18:35;91.82;;;53.78;;
38785;SDS011;24535;45.508;12.252;2023-02-23T14:24:24;94.45;;;52.85;;
38785;SDS011;24535;45.508;12.252;2023-02-23T14:32:26;91.60;;;52.28;;
38785;SDS011;24535;45.508;12.252;2023-02-23T14:34:54;89.13;;;50.58;;
38785;SDS011;24535;45.508;12.252;2023-02-23T14:41:06;83.03;;;50.15;;
38785;SDS011;24535;45.508;12.252;2023-02-23T14:52:28;82.40;;;46.50;;
38785;SDS011;24535;45.508;12.252;2023-02-23T14:55:47;93.50;;;50.72;;
38785;SDS011;24535;45.508;12.252;2023-02-23T14:58:27;79.93;;;47.05;;
38785;SDS011;24535;45.508;12.252;2023-02-23T15:10:36;75.50;;;46.17;;
38785;SDS011;24535;45.508;12.252;2023-02-23T15:13:07;91.50;;;50.97;;
38785;SDS011;24535;45.508;12.252;2023-02-23T15:15:54;82.63;;;45.38;;
38785;SDS011;24535;45.508;12.252;2023-02-23T15:18:27;87.78;;;48.03;;
38785;SDS011;24535;45.508;12.252;2023-02-23T15:20:56;85.70;;;46.10;;
38785;SDS011;24535;45.508;12.252;2023-02-23T15:23:23;78.43;;;45.75;;
38785;SDS011;24535;45.508;12.252;2023-02-23T15:25:48;84.35;;;49.13;;
38785;SDS011;24535;45.508;12.252;2023-02-23T15:28:25;84.07;;;47.42;;
38785;SDS011;24535;45.508;12.252;2023-02-23T15:30:54;80.50;;;45.15;;
38785;SDS011;24535;45.508;12.252;2023-02-23T15:33:23;94.93;;;50.13;;
38785;SDS011;24535;45.508;12.252;2023-02-23T15:36:00;88.45;;;49.33;;
38785;SDS011;24535;45.508;12.252;2023-02-23T15:38:33;77.18;;;45.53;;
38785;SDS011;24535;45.508;12.252;2023-02-23T15:41:19;74.97;;;41.88;;
38785;SDS011;24535;45.508;12.252;2023-02-23T15:44:28;85.57;;;49.28;;
38785;SDS011;24535;45.508;12.252;2023-02-23T15:53:34;73.30;;;44.75;;
38785;SDS011;24535;45.508;12.252;2023-02-23T15:56:23;85.40;;;47.08;;
38785;SDS011;24535;45.508;12.252;2023-02-23T15:59:10;88.68;;;51.33;;
38785;SDS011;24535;45.508;12.252;2023-02-23T16:02:21;91.57;;;51.53;;
38785;SDS011;24535;45.508;12.252;2023-02-23T16:15:35;95.80;;;54.03;;
38785;SDS011;24535;45.508;12.252;2023-02-23T16:18:49;96.97;;;48.80;;
38785;SDS011;24535;45.508;12.252;2023-02-23T16:24:18;65.28;;;41.97;;
38785;SDS011;24535;45.508;12.252;2023-02-23T16:36:54;71.15;;;42.92;;
38785;SDS011;24535;45.508;12.252;2023-02-23T16:39:57;71.35;;;36.83;;
38785;SDS011;24535;45.508;12.252;2023-02-23T16:42:31;69.07;;;43.10;;
38785;SDS011;24535;45.508;12.252;2023-02-23T16:45:17;61.28;;;37.45;;
38785;SDS011;24535;45.508;12.252;2023-02-23T16:47:43;66.32;;;34.22;;
38785;SDS011;24535;45.508;12.252;2023-02-23T16:53:28;66.38;;;39.40;;
38785;SDS011;24535;45.508;12.252;2023-02-23T16:59:00;77.25;;;46.25;;
38785;SDS011;24535;45.508;12.252;2023-02-23T17:01:52;72.07;;;40.85;;
38785;SDS011;24535;45.508;12.252;2023-02-23T17:04:56;72.63;;;40.90;;
38785;SDS011;24535;45.508;12.252;2023-02-23T17:07:40;86.95;;;46.95;;
38785;SDS011;24535;45.508;12.252;2023-02-23T17:19:41;69.25;;;39.10;;
38785;SDS011;24535;45.508;12.252;2023-02-23T17:24:57;91.38;;;48.85;;
38785;SDS011;24535;45.508;12.252;2023-02-23T17:27:39;81.90;;;44.63;;
38785;SDS011;24535;45.508;12.252;2023-02-23T17:30:19;70.95;;;41.55;;
38785;SDS011;24535;45.508;12.252;2023-02-23T17:32:54;96.38;;;52.60;;
38785;SDS011;24535;45.508;12.252;2023-02-23T17:35:56;87.20;;;46.00;;
38785;SDS011;24535;45.508;12.252;2023-02-23T17:38:28;89.18;;;50.60;;
38785;SDS011;24535;45.508;12.252;2023-02-23T17:41:07;91.15;;;49.65;;
38785;SDS011;24535;45.508;12.252;2023-02-23T17:43:34;92.60;;;51.65;;
38785;SDS011;24535;45.508;12.252;2023-02-23T17:46:01;91.47;;;48.22;;
38785;SDS011;24535;45.508;12.252;2023-02-23T17:48:27;88.93;;;52.28;;
38785;SDS011;24535;45.508;12.252;2023-02-23T17:53:43;89.22;;;45.60;;
38785;SDS011;24535;45.508;12.252;2023-02-23T17:56:08;70.78;;;42.35;;
38785;SDS011;24535;45.508;12.252;2023-02-23T17:58:34;64.22;;;37.65;;
38785;SDS011;24535;45.508;12.252;2023-02-23T18:01:01;74.50;;;42.80;;
38785;SDS011;24535;45.508;12.252;2023-02-23T18:03:48;62.63;;;39.25;;
38785;SDS011;24535;45.508;12.252;2023-02-23T18:06:14;85.97;;;49.45;;
38785;SDS011;24535;45.508;12.252;2023-02-23T18:15:09;90.03;;;50.40;;
38785;SDS011;24535;45.508;12.252;2023-02-23T18:20:13;88.07;;;49.55;;
38785;SDS011;24535;45.508;12.252;2023-02-23T18:22:41;103.35;;;58.90;;
38785;SDS011;24535;45.508;12.252;2023-02-23T18:25:07;78.13;;;45.80;;
38785;SDS011;24535;45.508;12.252;2023-02-23T18:27:43;105.32;;;54.90;;
38785;SDS011;24535;45.508;12.252;2023-02-23T18:30:08;104.75;;;55.28;;
38785;SDS011;24535;45.508;12.252;2023-02-23T18:32:34;105.85;;;58.78;;
38785;SDS011;24535;45.508;12.252;2023-02-23T18:35:00;102.22;;;59.50;;
38785;SDS011;24535;45.508;12.252;2023-02-23T18:37:37;101.05;;;57.28;;
38785;SDS011;24535;45.508;12.252;2023-02-23T18:43:10;83.00;;;47.85;;
38785;SDS011;24535;45.508;12.252;2023-02-23T18:45:37;81.25;;;46.97;;
38785;SDS011;24535;45.508;12.252;2023-02-23T18:51:19;108.10;;;60.13;;
38785;SDS011;24535;45.508;12.252;2023-02-23T18:57:30;105.25;;;59.72;;
38785;SDS011;24535;45.508;12.252;2023-02-23T19:00:19;100.85;;;57.80;;
38785;SDS011;24535;45.508;12.252;2023-02-23T19:06:29;95.30;;;51.45;;
38785;SDS011;24535;45.508;12.252;2023-02-23T19:09:01;102.22;;;61.03;;
38785;SDS011;24535;45.508;12.252;2023-02-23T19:14:40;112.50;;;60.78;;
38785;SDS011;24535;45.508;12.252;2023-02-23T19:26:27;97.30;;;57.03;;
38785;SDS011;24535;45.508;12.252;2023-02-23T19:32:20;88.03;;;48.17;;
38785;SDS011;24535;45.508;12.252;2023-02-23T19:35:00;97.38;;;55.10;;
38785;SDS011;24535;45.508;12.252;2023-02-23T19:40:36;104.30;;;59.47;;
38785;SDS011;24535;45.508;12.252;2023-02-23T19:43:07;114.10;;;60.13;;
38785;SDS011;24535;45.508;12.252;2023-02-23T19:45:39;120.57;;;62.63;;
38785;SDS011;24535;45.508;12.252;2023-02-23T19:48:23;114.13;;;62.58;;
38785;SDS011;24535;45.508;12.252;2023-02-23T19:50:54;104.95;;;61.05;;